sensor_id;sensor_type;location;lat;lon;timestamp;temperature;humidity
29731;DHT22;16639;51.488;0.152;2022-11-21T00:01:22;7.40;99.90
29731;DHT22;16639;51.488;0.152;2022-11-21T00:03:50;7.30;99.90
29731;DHT22;16639;51.488;0.152;2022-11-21T00:06:18;7.30;99.90
29731;DHT22;16639;51.488;0.152;2022-11-21T00:08:46;7.40;99.90
29731;DHT22;16639;51.488;0.152;2022-11-21T00:11:14;7.30;99.90
29731;DHT22;16639;51.488;0.152;2022-11-21T00:13:42;7.30;99.90
29731;DHT22;16639;51.488;0.152;2022-11-21T00:16:12;7.30;99.90
29731;DHT22;16639;51.488;0.152;2022-11-21T00:18:40;8.20;99.90
29731;DHT22;16639;51.488;0.152;2022-11-21T00:21:13;7.30;99.90
29731;DHT22;16639;51.488;0.152;2022-11-21T00:23:42;7.30;99.90
29731;DHT22;16639;51.488;0.152;2022-11-21T00:26:11;7.20;99.90
29731;DHT22;16639;51.488;0.152;2022-11-21T00:28:39;7.20;99.90
29731;DHT22;16639;51.488;0.152;2022-11-21T00:31:06;7.10;99.90
29731;DHT22;16639;51.488;0.152;2022-11-21T00:33:34;7.10;99.90
29731;DHT22;16639;51.488;0.152;2022-11-21T00:36:07;7.50;99.90
29731;DHT22;16639;51.488;0.152;2022-11-21T00:38:35;7.10;99.90
29731;DHT22;16639;51.488;0.152;2022-11-21T00:41:03;7.00;99.90
29731;DHT22;16639;51.488;0.152;2022-11-21T00:43:31;7.00;99.90
29731;DHT22;16639;51.488;0.152;2022-11-21T00:45:58;7.00;99.90
29731;DHT22;16639;51.488;0.152;2022-11-21T00:48:30;6.90;99.90
29731;DHT22;16639;51.488;0.152;2022-11-21T00:50:58;6.90;99.90
29731;DHT22;16639;51.488;0.152;2022-11-21T00:53:27;6.90;99.90
29731;DHT22;16639;51.488;0.152;2022-11-21T00:55:55;7.50;99.90
29731;DHT22;16639;51.488;0.152;2022-11-21T00:58:23;6.90;99.90
29731;DHT22;16639;51.488;0.152;2022-11-21T01:00:51;6.60;99.90
29731;DHT22;16639;51.488;0.152;2022-11-21T01:03:18;6.90;99.90
29731;DHT22;16639;51.488;0.152;2022-11-21T01:05:46;6.90;99.90
29731;DHT22;16639;51.488;0.152;2022-11-21T01:08:13;6.80;99.90
29731;DHT22;16639;51.488;0.152;2022-11-21T01:10:40;6.90;99.90
29731;DHT22;16639;51.488;0.152;2022-11-21T01:13:08;6.90;99.90
29731;DHT22;16639;51.488;0.152;2022-11-21T01:15:35;6.90;99.90
29731;DHT22;16639;51.488;0.152;2022-11-21T01:18:02;6.90;99.90
29731;DHT22;16639;51.488;0.152;2022-11-21T01:20:30;6.90;99.90
29731;DHT22;16639;51.488;0.152;2022-11-21T01:22:57;7.20;99.90
29731;DHT22;16639;51.488;0.152;2022-11-21T01:25:25;7.00;99.90
29731;DHT22;16639;51.488;0.152;2022-11-21T01:27:52;7.90;99.90
29731;DHT22;16639;51.488;0.152;2022-11-21T01:30:20;6.80;99.90
29731;DHT22;16639;51.488;0.152;2022-11-21T01:32:47;6.90;99.90
29731;DHT22;16639;51.488;0.152;2022-11-21T01:35:16;8.90;99.90
29731;DHT22;16639;51.488;0.152;2022-11-21T01:37:47;7.00;99.90
29731;DHT22;16639;51.488;0.152;2022-11-21T01:40:15;7.00;99.90
29731;DHT22;16639;51.488;0.152;2022-11-21T01:43:13;7.00;99.90
29731;DHT22;16639;51.488;0.152;2022-11-21T01:45:52;7.10;99.90
29731;DHT22;16639;51.488;0.152;2022-11-21T01:48:26;7.10;99.90
29731;DHT22;16639;51.488;0.152;2022-11-21T01:50:59;7.10;99.90
29731;DHT22;16639;51.488;0.152;2022-11-21T01:53:29;7.10;99.90
29731;DHT22;16639;51.488;0.152;2022-11-21T01:55:56;7.10;99.90
29731;DHT22;16639;51.488;0.152;2022-11-21T01:58:24;7.40;99.90
29731;DHT22;16639;51.488;0.152;2022-11-21T02:00:52;7.10;99.90
29731;DHT22;16639;51.488;0.152;2022-11-21T02:03:24;7.90;99.90
29731;DHT22;16639;51.488;0.152;2022-11-21T02:05:53;7.10;99.90
29731;DHT22;16639;51.488;0.152;2022-11-21T02:08:22;7.10;99.90
29731;DHT22;16639;51.488;0.152;2022-11-21T02:13:33;7.10;99.90
29731;DHT22;16639;51.488;0.152;2022-11-21T02:16:01;7.10;99.90
29731;DHT22;16639;51.488;0.152;2022-11-21T02:18:28;7.00;99.90
29731;DHT22;16639;51.488;0.152;2022-11-21T02:24:05;7.10;99.90
29731;DHT22;16639;51.488;0.152;2022-11-21T02:26:38;7.00;99.90
29731;DHT22;16639;51.488;0.152;2022-11-21T02:29:05;6.90;99.90
29731;DHT22;16639;51.488;0.152;2022-11-21T02:31:33;6.90;99.90
29731;DHT22;16639;51.488;0.152;2022-11-21T02:34:00;6.90;99.90
29731;DHT22;16639;51.488;0.152;2022-11-21T02:36:40;6.90;99.90
29731;DHT22;16639;51.488;0.152;2022-11-21T02:39:21;6.90;99.90
29731;DHT22;16639;51.488;0.152;2022-11-21T02:42:37;6.90;99.90
29731;DHT22;16639;51.488;0.152;2022-11-21T02:44:59;6.80;99.90
29731;DHT22;16639;51.488;0.152;2022-11-21T02:47:29;6.80;99.90
29731;DHT22;16639;51.488;0.152;2022-11-21T02:50:02;6.80;99.90
29731;DHT22;16639;51.488;0.152;2022-11-21T02:52:32;6.70;99.90
29731;DHT22;16639;51.488;0.152;2022-11-21T02:54:59;6.70;99.90
29731;DHT22;16639;51.488;0.152;2022-11-21T02:57:27;6.60;99.90
29731;DHT22;16639;51.488;0.152;2022-11-21T02:59:54;6.70;99.90
29731;DHT22;16639;51.488;0.152;2022-11-21T03:02:22;6.70;99.90
29731;DHT22;16639;51.488;0.152;2022-11-21T03:04:49;6.60;99.90
29731;DHT22;16639;51.488;0.152;2022-11-21T03:07:16;6.60;99.90
29731;DHT22;16639;51.488;0.152;2022-11-21T03:09:44;6.60;99.90
29731;DHT22;16639;51.488;0.152;2022-11-21T03:12:11;6.70;99.90
29731;DHT22;16639;51.488;0.152;2022-11-21T03:14:39;6.80;99.90
29731;DHT22;16639;51.488;0.152;2022-11-21T03:17:08;6.60;99.90
29731;DHT22;16639;51.488;0.152;2022-11-21T03:19:36;6.60;99.90
29731;DHT22;16639;51.488;0.152;2022-11-21T03:22:03;7.90;99.90
29731;DHT22;16639;51.488;0.152;2022-11-21T03:24:31;6.60;99.90
29731;DHT22;16639;51.488;0.152;2022-11-21T03:26:58;6.60;99.90
29731;DHT22;16639;51.488;0.152;2022-11-21T03:29:25;6.60;99.90
29731;DHT22;16639;51.488;0.152;2022-11-21T03:31:53;7.10;99.90
29731;DHT22;16639;51.488;0.152;2022-11-21T03:34:20;6.50;99.90
29731;DHT22;16639;51.488;0.152;2022-11-21T03:36:47;7.00;99.90
29731;DHT22;16639;51.488;0.152;2022-11-21T03:39:15;6.50;99.90
29731;DHT22;16639;51.488;0.152;2022-11-21T03:41:42;6.50;99.90
29731;DHT22;16639;51.488;0.152;2022-11-21T03:44:11;6.40;99.90
29731;DHT22;16639;51.488;0.152;2022-11-21T03:46:44;5.80;99.90
29731;DHT22;16639;51.488;0.152;2022-11-21T03:49:12;6.40;99.90
29731;DHT22;16639;51.488;0.152;2022-11-21T03:51:40;6.40;99.90
29731;DHT22;16639;51.488;0.152;2022-11-21T03:54:08;6.80;99.90
29731;DHT22;16639;51.488;0.152;2022-11-21T03:56:36;6.40;99.90
29731;DHT22;16639;51.488;0.152;2022-11-21T03:59:03;6.40;99.90
29731;DHT22;16639;51.488;0.152;2022-11-21T04:01:31;6.40;99.90
29731;DHT22;16639;51.488;0.152;2022-11-21T04:04:03;6.40;99.90
29731;DHT22;16639;51.488;0.152;2022-11-21T04:06:31;6.40;99.90
29731;DHT22;16639;51.488;0.152;2022-11-21T04:08:58;7.40;99.90
29731;DHT22;16639;51.488;0.152;2022-11-21T04:11:25;6.40;99.90
29731;DHT22;16639;51.488;0.152;2022-11-21T04:13:53;6.40;99.90
29731;DHT22;16639;51.488;0.152;2022-11-21T04:16:20;6.40;99.90
29731;DHT22;16639;51.488;0.152;2022-11-21T04:18:47;6.40;99.90
29731;DHT22;16639;51.488;0.152;2022-11-21T04:21:15;6.30;99.90
29731;DHT22;16639;51.488;0.152;2022-11-21T04:23:42;6.30;99.90
29731;DHT22;16639;51.488;0.152;2022-11-21T04:26:10;6.30;99.90
29731;DHT22;16639;51.488;0.152;2022-11-21T04:28:37;6.30;99.90
29731;DHT22;16639;51.488;0.152;2022-11-21T04:31:05;6.40;99.90
29731;DHT22;16639;51.488;0.152;2022-11-21T04:33:38;6.30;99.90
29731;DHT22;16639;51.488;0.152;2022-11-21T04:36:06;6.20;99.90
29731;DHT22;16639;51.488;0.152;2022-11-21T04:38:34;6.20;99.90
29731;DHT22;16639;51.488;0.152;2022-11-21T04:41:01;6.20;99.90
29731;DHT22;16639;51.488;0.152;2022-11-21T04:43:28;6.10;99.90
29731;DHT22;16639;51.488;0.152;2022-11-21T04:45:56;6.10;99.90
29731;DHT22;16639;51.488;0.152;2022-11-21T04:48:23;6.10;99.90
29731;DHT22;16639;51.488;0.152;2022-11-21T04:50:51;6.10;99.90
29731;DHT22;16639;51.488;0.152;2022-11-21T04:53:18;6.10;99.90
29731;DHT22;16639;51.488;0.152;2022-11-21T04:55:46;6.10;99.90
29731;DHT22;16639;51.488;0.152;2022-11-21T04:58:13;6.50;99.90
29731;DHT22;16639;51.488;0.152;2022-11-21T05:00:40;6.20;99.90
29731;DHT22;16639;51.488;0.152;2022-11-21T05:03:08;6.10;99.90
29731;DHT22;16639;51.488;0.152;2022-11-21T05:05:35;6.90;99.90
29731;DHT22;16639;51.488;0.152;2022-11-21T05:08:03;6.10;99.90
29731;DHT22;16639;51.488;0.152;2022-11-21T05:10:30;6.10;99.90
29731;DHT22;16639;51.488;0.152;2022-11-21T05:13:17;6.10;99.90
29731;DHT22;16639;51.488;0.152;2022-11-21T05:15:48;6.10;99.90
29731;DHT22;16639;51.488;0.152;2022-11-21T05:18:18;6.10;99.90
29731;DHT22;16639;51.488;0.152;2022-11-21T05:20:46;6.00;99.90
29731;DHT22;16639;51.488;0.152;2022-11-21T05:23:13;6.10;99.90
29731;DHT22;16639;51.488;0.152;2022-11-21T05:25:40;6.10;99.90
29731;DHT22;16639;51.488;0.152;2022-11-21T05:28:08;6.10;99.90
29731;DHT22;16639;51.488;0.152;2022-11-21T05:30:35;6.10;99.90
29731;DHT22;16639;51.488;0.152;2022-11-21T05:33:04;6.20;99.90
29731;DHT22;16639;51.488;0.152;2022-11-21T05:35:31;6.20;99.90
29731;DHT22;16639;51.488;0.152;2022-11-21T05:37:58;6.20;99.90
29731;DHT22;16639;51.488;0.152;2022-11-21T05:40:26;7.20;99.90
29731;DHT22;16639;51.488;0.152;2022-11-21T05:42:53;5.90;99.90
29731;DHT22;16639;51.488;0.152;2022-11-21T05:45:39;6.20;99.90
29731;DHT22;16639;51.488;0.152;2022-11-21T05:48:06;6.20;99.90
29731;DHT22;16639;51.488;0.152;2022-11-21T05:50:35;6.20;99.90
29731;DHT22;16639;51.488;0.152;2022-11-21T05:53:03;6.20;99.90
29731;DHT22;16639;51.488;0.152;2022-11-21T05:55:33;6.30;99.90
29731;DHT22;16639;51.488;0.152;2022-11-21T05:58:01;6.20;99.90
29731;DHT22;16639;51.488;0.152;2022-11-21T06:00:28;6.30;99.90
29731;DHT22;16639;51.488;0.152;2022-11-21T06:02:55;6.40;99.90
29731;DHT22;16639;51.488;0.152;2022-11-21T06:05:42;6.40;99.90
29731;DHT22;16639;51.488;0.152;2022-11-21T06:08:09;6.40;99.90
29731;DHT22;16639;51.488;0.152;2022-11-21T06:10:37;6.40;99.90
29731;DHT22;16639;51.488;0.152;2022-11-21T06:13:04;6.50;99.90
29731;DHT22;16639;51.488;0.152;2022-11-21T06:15:50;6.40;99.90
29731;DHT22;16639;51.488;0.152;2022-11-21T06:18:18;6.50;99.90
29731;DHT22;16639;51.488;0.152;2022-11-21T06:20:45;6.40;99.90
29731;DHT22;16639;51.488;0.152;2022-11-21T06:23:13;6.50;99.90
29731;DHT22;16639;51.488;0.152;2022-11-21T06:25:41;6.60;99.90
29731;DHT22;16639;51.488;0.152;2022-11-21T06:28:10;6.60;99.90
29731;DHT22;16639;51.488;0.152;2022-11-21T06:30:38;6.40;99.90
29731;DHT22;16639;51.488;0.152;2022-11-21T06:33:05;6.60;99.90
29731;DHT22;16639;51.488;0.152;2022-11-21T06:35:36;6.60;99.90
29731;DHT22;16639;51.488;0.152;2022-11-21T06:38:03;6.60;99.90
29731;DHT22;16639;51.488;0.152;2022-11-21T06:40:31;6.50;99.90
29731;DHT22;16639;51.488;0.152;2022-11-21T06:42:58;6.50;99.90
29731;DHT22;16639;51.488;0.152;2022-11-21T06:45:26;7.10;99.90
29731;DHT22;16639;51.488;0.152;2022-11-21T06:47:53;6.50;99.90
29731;DHT22;16639;51.488;0.152;2022-11-21T06:50:21;6.60;99.90
29731;DHT22;16639;51.488;0.152;2022-11-21T06:52:48;6.60;99.90
29731;DHT22;16639;51.488;0.152;2022-11-21T06:55:16;6.50;99.90
29731;DHT22;16639;51.488;0.152;2022-11-21T06:57:43;6.60;99.90
29731;DHT22;16639;51.488;0.152;2022-11-21T07:00:11;6.60;99.90
29731;DHT22;16639;51.488;0.152;2022-11-21T07:02:38;6.50;99.90
29731;DHT22;16639;51.488;0.152;2022-11-21T07:05:06;6.50;99.90
29731;DHT22;16639;51.488;0.152;2022-11-21T07:07:33;6.50;99.90
29731;DHT22;16639;51.488;0.152;2022-11-21T07:10:01;6.60;99.90
29731;DHT22;16639;51.488;0.152;2022-11-21T07:12:28;6.60;99.90
29731;DHT22;16639;51.488;0.152;2022-11-21T07:15:14;6.60;99.90
29731;DHT22;16639;51.488;0.152;2022-11-21T07:17:42;6.60;99.90
29731;DHT22;16639;51.488;0.152;2022-11-21T07:20:10;8.50;99.90
29731;DHT22;16639;51.488;0.152;2022-11-21T07:22:37;6.70;99.90
29731;DHT22;16639;51.488;0.152;2022-11-21T07:25:05;6.80;99.90
29731;DHT22;16639;51.488;0.152;2022-11-21T07:27:32;6.80;99.90
29731;DHT22;16639;51.488;0.152;2022-11-21T07:30:00;6.80;99.90
29731;DHT22;16639;51.488;0.152;2022-11-21T07:32:27;7.00;99.90
29731;DHT22;16639;51.488;0.152;2022-11-21T07:34:55;6.90;99.90
29731;DHT22;16639;51.488;0.152;2022-11-21T07:37:22;7.00;99.90
29731;DHT22;16639;51.488;0.152;2022-11-21T07:39:49;7.70;99.90
29731;DHT22;16639;51.488;0.152;2022-11-21T07:42:16;7.00;99.90
29731;DHT22;16639;51.488;0.152;2022-11-21T07:44:44;7.00;99.90
29731;DHT22;16639;51.488;0.152;2022-11-21T07:47:15;7.00;99.90
29731;DHT22;16639;51.488;0.152;2022-11-21T07:49:43;7.10;99.90
29731;DHT22;16639;51.488;0.152;2022-11-21T07:52:10;7.10;99.90
29731;DHT22;16639;51.488;0.152;2022-11-21T07:54:37;7.10;99.90
29731;DHT22;16639;51.488;0.152;2022-11-21T07:57:05;7.10;99.90
29731;DHT22;16639;51.488;0.152;2022-11-21T07:59:32;7.10;99.90
29731;DHT22;16639;51.488;0.152;2022-11-21T08:01:59;7.10;99.90
29731;DHT22;16639;51.488;0.152;2022-11-21T08:04:27;7.10;99.90
29731;DHT22;16639;51.488;0.152;2022-11-21T08:06:54;7.10;99.90
29731;DHT22;16639;51.488;0.152;2022-11-21T08:09:22;7.10;99.90
29731;DHT22;16639;51.488;0.152;2022-11-21T08:11:53;7.10;99.90
29731;DHT22;16639;51.488;0.152;2022-11-21T08:14:21;7.10;99.90
29731;DHT22;16639;51.488;0.152;2022-11-21T08:16:50;7.10;99.90
29731;DHT22;16639;51.488;0.152;2022-11-21T08:19:18;7.20;99.90
29731;DHT22;16639;51.488;0.152;2022-11-21T08:21:45;7.10;99.90
29731;DHT22;16639;51.488;0.152;2022-11-21T08:24:13;8.60;99.90
29731;DHT22;16639;51.488;0.152;2022-11-21T08:26:43;7.20;99.90
29731;DHT22;16639;51.488;0.152;2022-11-21T08:29:12;6.00;99.90
29731;DHT22;16639;51.488;0.152;2022-11-21T08:31:42;7.20;99.90
29731;DHT22;16639;51.488;0.152;2022-11-21T08:34:10;7.20;99.90
29731;DHT22;16639;51.488;0.152;2022-11-21T08:36:40;8.10;99.90
29731;DHT22;16639;51.488;0.152;2022-11-21T08:39:08;7.30;99.90
29731;DHT22;16639;51.488;0.152;2022-11-21T08:41:35;7.40;99.90
29731;DHT22;16639;51.488;0.152;2022-11-21T08:44:21;7.40;99.90
29731;DHT22;16639;51.488;0.152;2022-11-21T08:46:48;7.40;99.90
29731;DHT22;16639;51.488;0.152;2022-11-21T08:49:16;7.50;99.90
29731;DHT22;16639;51.488;0.152;2022-11-21T08:51:45;7.50;99.90
29731;DHT22;16639;51.488;0.152;2022-11-21T08:54:20;7.60;99.90
29731;DHT22;16639;51.488;0.152;2022-11-21T08:56:49;7.60;99.90
29731;DHT22;16639;51.488;0.152;2022-11-21T08:59:17;7.70;99.90
29731;DHT22;16639;51.488;0.152;2022-11-21T09:01:44;7.70;99.90
29731;DHT22;16639;51.488;0.152;2022-11-21T09:04:11;7.70;99.90
29731;DHT22;16639;51.488;0.152;2022-11-21T09:06:39;7.80;99.90
29731;DHT22;16639;51.488;0.152;2022-11-21T09:09:06;7.80;99.90
29731;DHT22;16639;51.488;0.152;2022-11-21T09:11:34;7.90;99.90
29731;DHT22;16639;51.488;0.152;2022-11-21T09:14:03;7.90;99.90
29731;DHT22;16639;51.488;0.152;2022-11-21T09:16:49;7.90;99.90
29731;DHT22;16639;51.488;0.152;2022-11-21T09:19:35;8.00;99.90
29731;DHT22;16639;51.488;0.152;2022-11-21T09:22:02;7.90;99.90
29731;DHT22;16639;51.488;0.152;2022-11-21T09:24:29;8.00;99.90
29731;DHT22;16639;51.488;0.152;2022-11-21T09:26:58;8.00;99.90
29731;DHT22;16639;51.488;0.152;2022-11-21T09:29:25;8.10;99.90
29731;DHT22;16639;51.488;0.152;2022-11-21T09:31:53;8.10;99.90
29731;DHT22;16639;51.488;0.152;2022-11-21T09:34:20;8.20;99.90
29731;DHT22;16639;51.488;0.152;2022-11-21T09:36:48;8.20;99.90
29731;DHT22;16639;51.488;0.152;2022-11-21T09:39:15;8.20;99.90
29731;DHT22;16639;51.488;0.152;2022-11-21T09:47:31;8.40;99.90
29731;DHT22;16639;51.488;0.152;2022-11-21T09:50:04;8.40;99.90
29731;DHT22;16639;51.488;0.152;2022-11-21T09:52:45;8.40;99.90
29731;DHT22;16639;51.488;0.152;2022-11-21T09:58:03;8.50;99.90
29731;DHT22;16639;51.488;0.152;2022-11-21T10:00:32;8.40;99.90
29731;DHT22;16639;51.488;0.152;2022-11-21T10:03:00;8.50;99.90
29731;DHT22;16639;51.488;0.152;2022-11-21T10:05:44;8.40;99.90
29731;DHT22;16639;51.488;0.152;2022-11-21T10:14:19;8.50;99.90
29731;DHT22;16639;51.488;0.152;2022-11-21T10:17:02;8.40;99.90
29731;DHT22;16639;51.488;0.152;2022-11-21T10:20:08;8.40;99.90
29731;DHT22;16639;51.488;0.152;2022-11-21T10:22:51;8.40;99.90
29731;DHT22;16639;51.488;0.152;2022-11-21T10:25:25;8.50;99.90
29731;DHT22;16639;51.488;0.152;2022-11-21T10:30:34;8.40;99.90
29731;DHT22;16639;51.488;0.152;2022-11-21T10:33:03;8.50;99.90
29731;DHT22;16639;51.488;0.152;2022-11-21T10:35:38;8.50;99.90
29731;DHT22;16639;51.488;0.152;2022-11-21T10:38:21;8.50;99.90
29731;DHT22;16639;51.488;0.152;2022-11-21T10:41:05;8.60;99.90
29731;DHT22;16639;51.488;0.152;2022-11-21T10:44:00;8.60;99.90
29731;DHT22;16639;51.488;0.152;2022-11-21T10:46:56;8.60;99.90
29731;DHT22;16639;51.488;0.152;2022-11-21T10:49:25;8.70;99.90
29731;DHT22;16639;51.488;0.152;2022-11-21T10:52:06;8.70;99.90
29731;DHT22;16639;51.488;0.152;2022-11-21T10:57:39;8.70;99.90
29731;DHT22;16639;51.488;0.152;2022-11-21T11:05:37;8.80;99.90
29731;DHT22;16639;51.488;0.152;2022-11-21T11:08:13;8.80;99.90
29731;DHT22;16639;51.488;0.152;2022-11-21T11:10:59;8.80;99.90
29731;DHT22;16639;51.488;0.152;2022-11-21T11:13:27;8.80;99.90
29731;DHT22;16639;51.488;0.152;2022-11-21T11:16:17;8.90;99.90
29731;DHT22;16639;51.488;0.152;2022-11-21T11:19:05;8.90;99.90
29731;DHT22;16639;51.488;0.152;2022-11-21T11:29:29;8.90;99.90
29731;DHT22;16639;51.488;0.152;2022-11-21T11:31:59;9.00;99.90
29731;DHT22;16639;51.488;0.152;2022-11-21T11:34:40;9.00;99.90
29731;DHT22;16639;51.488;0.152;2022-11-21T11:37:16;9.10;99.90
29731;DHT22;16639;51.488;0.152;2022-11-21T11:39:58;9.10;99.90
29731;DHT22;16639;51.488;0.152;2022-11-21T11:42:43;9.10;99.90
29731;DHT22;16639;51.488;0.152;2022-11-21T11:45:38;9.10;99.90
29731;DHT22;16639;51.488;0.152;2022-11-21T11:48:28;9.10;99.90
29731;DHT22;16639;51.488;0.152;2022-11-21T11:51:00;9.10;99.90
29731;DHT22;16639;51.488;0.152;2022-11-21T11:53:37;9.10;99.90
29731;DHT22;16639;51.488;0.152;2022-11-21T12:01:26;9.10;99.90
29731;DHT22;16639;51.488;0.152;2022-11-21T12:04:20;9.20;99.90
29731;DHT22;16639;51.488;0.152;2022-11-21T12:07:02;9.20;99.90
29731;DHT22;16639;51.488;0.152;2022-11-21T12:20:29;9.40;99.90
29731;DHT22;16639;51.488;0.152;2022-11-21T12:23:00;9.40;99.90
29731;DHT22;16639;51.488;0.152;2022-11-21T12:25:30;9.40;99.90
29731;DHT22;16639;51.488;0.152;2022-11-21T12:27:59;9.40;99.90
29731;DHT22;16639;51.488;0.152;2022-11-21T12:33:20;9.50;99.90
29731;DHT22;16639;51.488;0.152;2022-11-21T12:36:13;9.50;99.90
29731;DHT22;16639;51.488;0.152;2022-11-21T12:44:39;9.60;99.90
29731;DHT22;16639;51.488;0.152;2022-11-21T12:50:24;9.60;99.90
29731;DHT22;16639;51.488;0.152;2022-11-21T12:53:51;9.60;99.90
29731;DHT22;16639;51.488;0.152;2022-11-21T12:59:30;9.60;99.90
29731;DHT22;16639;51.488;0.152;2022-11-21T13:04:48;9.50;99.90
29731;DHT22;16639;51.488;0.152;2022-11-21T13:07:17;9.60;99.90
29731;DHT22;16639;51.488;0.152;2022-11-21T13:09:48;9.60;99.90
29731;DHT22;16639;51.488;0.152;2022-11-21T13:17:48;9.50;99.90
29731;DHT22;16639;51.488;0.152;2022-11-21T13:20:38;9.50;99.90
29731;DHT22;16639;51.488;0.152;2022-11-21T13:23:33;9.50;99.90
29731;DHT22;16639;51.488;0.152;2022-11-21T13:26:01;9.40;99.90
29731;DHT22;16639;51.488;0.152;2022-11-21T13:28:29;9.30;99.90
29731;DHT22;16639;51.488;0.152;2022-11-21T13:31:00;9.20;99.90
29731;DHT22;16639;51.488;0.152;2022-11-21T13:36:10;9.20;99.90
29731;DHT22;16639;51.488;0.152;2022-11-21T14:01:05;9.40;99.90
29731;DHT22;16639;51.488;0.152;2022-11-21T14:06:47;9.50;99.90
29731;DHT22;16639;51.488;0.152;2022-11-21T14:09:13;8.70;99.90
29731;DHT22;16639;51.488;0.152;2022-11-21T14:12:04;8.60;99.90
29731;DHT22;16639;51.488;0.152;2022-11-21T14:17:30;8.60;99.90
29731;DHT22;16639;51.488;0.152;2022-11-21T14:20:20;8.60;99.90
29731;DHT22;16639;51.488;0.152;2022-11-21T14:23:17;8.60;99.90
29731;DHT22;16639;51.488;0.152;2022-11-21T14:25:51;8.60;99.90
29731;DHT22;16639;51.488;0.152;2022-11-21T14:28:40;8.30;99.90
29731;DHT22;16639;51.488;0.152;2022-11-21T14:31:09;8.60;99.90
29731;DHT22;16639;51.488;0.152;2022-11-21T14:33:38;8.60;99.90
29731;DHT22;16639;51.488;0.152;2022-11-21T14:46:37;8.50;99.90
29731;DHT22;16639;51.488;0.152;2022-11-21T14:51:43;8.50;99.90
29731;DHT22;16639;51.488;0.152;2022-11-21T14:54:17;8.50;99.90
29731;DHT22;16639;51.488;0.152;2022-11-21T14:56:47;8.50;99.90
29731;DHT22;16639;51.488;0.152;2022-11-21T14:59:29;8.60;99.90
29731;DHT22;16639;51.488;0.152;2022-11-21T15:02:03;8.60;99.90
29731;DHT22;16639;51.488;0.152;2022-11-21T15:04:34;8.50;99.90
29731;DHT22;16639;51.488;0.152;2022-11-21T15:07:03;8.60;99.90
29731;DHT22;16639;51.488;0.152;2022-11-21T15:09:31;8.50;99.90
29731;DHT22;16639;51.488;0.152;2022-11-21T15:15:18;8.40;99.90
29731;DHT22;16639;51.488;0.152;2022-11-21T15:17:54;8.50;99.90
29731;DHT22;16639;51.488;0.152;2022-11-21T15:20:47;8.40;99.90
29731;DHT22;16639;51.488;0.152;2022-11-21T15:23:37;8.40;99.90
29731;DHT22;16639;51.488;0.152;2022-11-21T15:26:31;8.40;99.90
29731;DHT22;16639;51.488;0.152;2022-11-21T15:29:01;8.50;99.90
29731;DHT22;16639;51.488;0.152;2022-11-21T15:31:28;8.50;99.90
29731;DHT22;16639;51.488;0.152;2022-11-21T15:34:01;8.40;99.90
29731;DHT22;16639;51.488;0.152;2022-11-21T15:37:04;8.40;99.90
29731;DHT22;16639;51.488;0.152;2022-11-21T15:39:34;8.40;99.90
29731;DHT22;16639;51.488;0.152;2022-11-21T15:42:27;8.50;99.90
29731;DHT22;16639;51.488;0.152;2022-11-21T15:44:58;8.50;99.90
29731;DHT22;16639;51.488;0.152;2022-11-21T15:47:25;8.50;99.90
29731;DHT22;16639;51.488;0.152;2022-11-21T15:49:53;8.50;99.90
29731;DHT22;16639;51.488;0.152;2022-11-21T15:52:20;8.60;99.90
29731;DHT22;16639;51.488;0.152;2022-11-21T15:54:48;8.50;99.90
29731;DHT22;16639;51.488;0.152;2022-11-21T15:57:15;9.00;99.90
29731;DHT22;16639;51.488;0.152;2022-11-21T15:59:49;8.50;99.90
29731;DHT22;16639;51.488;0.152;2022-11-21T16:02:16;8.50;99.90
29731;DHT22;16639;51.488;0.152;2022-11-21T16:04:44;8.60;99.90
29731;DHT22;16639;51.488;0.152;2022-11-21T16:07:11;8.60;99.90
29731;DHT22;16639;51.488;0.152;2022-11-21T16:09:38;8.60;99.90
29731;DHT22;16639;51.488;0.152;2022-11-21T16:12:08;8.60;99.90
29731;DHT22;16639;51.488;0.152;2022-11-21T16:14:35;8.70;99.90
29731;DHT22;16639;51.488;0.152;2022-11-21T16:17:03;8.60;99.90
29731;DHT22;16639;51.488;0.152;2022-11-21T16:19:30;8.70;99.90
29731;DHT22;16639;51.488;0.152;2022-11-21T16:21:58;8.60;99.90
29731;DHT22;16639;51.488;0.152;2022-11-21T16:24:25;9.10;99.90
29731;DHT22;16639;51.488;0.152;2022-11-21T16:26:52;8.60;99.90
29731;DHT22;16639;51.488;0.152;2022-11-21T16:29:21;8.70;99.90
29731;DHT22;16639;51.488;0.152;2022-11-21T16:31:51;8.70;99.90
29731;DHT22;16639;51.488;0.152;2022-11-21T16:34:21;8.70;99.90
29731;DHT22;16639;51.488;0.152;2022-11-21T16:36:49;8.80;99.90
29731;DHT22;16639;51.488;0.152;2022-11-21T16:39:16;8.70;99.90
29731;DHT22;16639;51.488;0.152;2022-11-21T16:41:44;8.80;99.90
29731;DHT22;16639;51.488;0.152;2022-11-21T16:44:14;8.80;99.90
29731;DHT22;16639;51.488;0.152;2022-11-21T16:46:43;8.80;99.90
29731;DHT22;16639;51.488;0.152;2022-11-21T16:49:11;10.20;99.90
29731;DHT22;16639;51.488;0.152;2022-11-21T16:51:38;8.90;99.90
29731;DHT22;16639;51.488;0.152;2022-11-21T16:54:06;8.90;99.90
29731;DHT22;16639;51.488;0.152;2022-11-21T16:56:35;8.90;99.90
29731;DHT22;16639;51.488;0.152;2022-11-21T16:59:02;8.90;99.90
29731;DHT22;16639;51.488;0.152;2022-11-21T17:01:30;8.90;99.90
29731;DHT22;16639;51.488;0.152;2022-11-21T17:03:58;9.00;99.90
29731;DHT22;16639;51.488;0.152;2022-11-21T17:06:28;9.00;99.90
29731;DHT22;16639;51.488;0.152;2022-11-21T17:09:00;9.20;99.90
29731;DHT22;16639;51.488;0.152;2022-11-21T17:11:29;8.90;99.90
29731;DHT22;16639;51.488;0.152;2022-11-21T17:14:05;8.90;99.90
29731;DHT22;16639;51.488;0.152;2022-11-21T17:16:33;8.90;99.90
29731;DHT22;16639;51.488;0.152;2022-11-21T17:19:02;9.00;99.90
29731;DHT22;16639;51.488;0.152;2022-11-21T17:21:30;9.60;99.90
29731;DHT22;16639;51.488;0.152;2022-11-21T17:23:58;9.00;99.90
29731;DHT22;16639;51.488;0.152;2022-11-21T17:26:27;9.00;99.90
29731;DHT22;16639;51.488;0.152;2022-11-21T17:28:59;8.90;99.90
29731;DHT22;16639;51.488;0.152;2022-11-21T17:31:26;8.80;99.90
29731;DHT22;16639;51.488;0.152;2022-11-21T17:33:56;8.50;99.90
29731;DHT22;16639;51.488;0.152;2022-11-21T17:36:25;8.70;99.90
29731;DHT22;16639;51.488;0.152;2022-11-21T17:38:53;8.60;99.90
29731;DHT22;16639;51.488;0.152;2022-11-21T17:41:22;8.40;99.90
29731;DHT22;16639;51.488;0.152;2022-11-21T17:43:53;8.40;99.90
29731;DHT22;16639;51.488;0.152;2022-11-21T17:46:21;8.40;99.90
29731;DHT22;16639;51.488;0.152;2022-11-21T17:48:50;8.30;99.90
29731;DHT22;16639;51.488;0.152;2022-11-21T17:51:29;8.10;99.90
29731;DHT22;16639;51.488;0.152;2022-11-21T17:53:58;8.30;99.90
29731;DHT22;16639;51.488;0.152;2022-11-21T17:56:29;8.90;99.90
29731;DHT22;16639;51.488;0.152;2022-11-21T17:58:57;8.20;99.90
29731;DHT22;16639;51.488;0.152;2022-11-21T18:01:25;8.20;99.90
29731;DHT22;16639;51.488;0.152;2022-11-21T18:03:58;8.20;99.90
29731;DHT22;16639;51.488;0.152;2022-11-21T18:06:27;8.20;99.90
29731;DHT22;16639;51.488;0.152;2022-11-21T18:08:56;8.20;99.90
29731;DHT22;16639;51.488;0.152;2022-11-21T18:11:31;8.30;99.90
29731;DHT22;16639;51.488;0.152;2022-11-21T18:14:07;8.30;99.90
29731;DHT22;16639;51.488;0.152;2022-11-21T18:16:34;8.30;99.90